Bad Goisen, Austria
Current Conditions -  °F | °C
As of 11:50 AM on Tuesday 27 Jan 2015 (Local Time) from LOWS Reporting Station
Snow Showers Snow Showers  
Wind Chill: 24°   Ceiling: 600
Heat Index: 34°   Visibility: 0.31mi
Dew Point: 32°   Wind: 14mph
Humidity: 93%   Direction: 320°NW
Pressure: 30.09"   Gusts: NA
Location:  47.65°N, 13.63°E
Report Text: LOWS 270950Z 32012KT 0500 +SHSN FEW003 BKN006 01/M00 Q1019 RESN R15/550295 TEMPO 8000 NSW
Loading
Personal Weather Stations






























Interactive Weather Map New forecast layout! Learn more

10-Day Weather Forecast

Advertisements
Track Severe Weather on mobile